Time;durP1;ratioP1;P1;durP2;ratioP2;P2;SDS_P1;SDS_P2;PMS_P1;PMS_P2;Temp;Humidity;BMP_temperature;BMP_pressure;BME280_temperature;BME280_humidity;BME280_pressure;Samples;Min_cycle;Max_cycle;Signal;HPM_P1;HPM_P2
2022/10/01 00:01:17;;;;;;;1.92;1.83;;;23.10;54.60;;;;;;4978621;28;20505;-66
2022/10/01 00:03:44;;;;;;;3.25;1.80;;;23.10;54.60;;;;;;4978485;28;20475;-67
2022/10/01 00:06:16;;;;;;;1.80;1.70;;;23.10;54.70;;;;;;4978376;28;20451;-66
2022/10/01 00:08:48;;;;;;;1.85;1.70;;;23.10;54.70;;;;;;4961715;28;20151;-67
2022/10/01 00:11:21;;;;;;;1.65;1.55;;;23.10;54.70;;;;;;4977695;28;20061;-66
2022/10/01 00:13:49;;;;;;;2.25;1.92;;;23.10;54.70;;;;;;4978373;28;20118;-66
2022/10/01 00:16:19;;;;;;;1.77;1.50;;;23.10;54.80;;;;;;4978574;28;20126;-66
2022/10/01 00:18:48;;;;;;;1.80;1.40;;;23.10;54.70;;;;;;4977887;28;20423;-66
2022/10/01 00:21:18;;;;;;;1.52;1.42;;;23.10;54.70;;;;;;4978612;28;20124;-66
2022/10/01 00:23:45;;;;;;;;;;;23.10;54.80;;;;;;4977266;28;20050;-66
2022/10/01 00:26:22;;;;;;;3.55;2.13;;;23.10;54.70;;;;;;4978193;28;20405;-66
2022/10/01 00:28:54;;;;;;;1.73;1.63;;;23.10;54.80;;;;;;4977178;28;20054;-66
2022/10/01 00:31:22;;;;;;;1.70;1.52;;;23.10;54.80;;;;;;4978398;28;20054;-66
2022/10/01 00:33:52;;;;;;;2.45;1.90;;;23.10;54.80;;;;;;4978170;28;20051;-67
2022/10/01 00:36:20;;;;;;;2.03;1.58;;;23.10;54.80;;;;;;4961163;28;20093;-67
2022/10/01 00:38:47;;;;;;;1.63;1.52;;;23.10;54.80;;;;;;4977060;28;20050;-66
2022/10/01 00:41:16;;;;;;;1.45;1.35;;;23.10;54.80;;;;;;4978365;28;20054;-66
2022/10/01 00:43:53;;;;;;;2.65;1.60;;;23.10;54.90;;;;;;4978307;28;20058;-67
2022/10/01 00:46:41;;;;;;;1.90;1.63;;;23.10;54.90;;;;;;4977955;28;20043;-67
2022/10/01 00:49:16;;;;;;;1.60;1.48;;;23.10;54.90;;;;;;4978894;28;20383;-66
2022/10/01 00:51:49;;;;;;;1.50;1.40;;;23.00;54.90;;;;;;4977889;28;20055;-67
2022/10/01 00:54:22;;;;;;;1.77;1.67;;;23.00;55.00;;;;;;4977799;28;20051;-66
2022/10/01 00:56:54;;;;;;;1.92;1.60;;;23.00;54.90;;;;;;4978199;28;20061;-66
2022/10/01 00:59:21;;;;;;;1.60;1.50;;;23.00;55.00;;;;;;4978152;28;20046;-66
2022/10/01 01:01:50;;;;;;;1.83;1.73;;;23.00;55.00;;;;;;4977813;28;20407;-66
2022/10/01 01:04:17;;;;;;;1.45;1.30;;;23.00;55.00;;;;;;4976805;28;20514;-66
2022/10/01 01:06:56;;;;;;;2.15;1.70;;;23.00;55.00;;;;;;4976541;28;20050;-67
2022/10/01 01:09:31;;;;;;;1.73;1.50;;;23.00;55.00;;;;;;4977731;28;20058;-67
2022/10/01 01:12:17;;;;;;;1.40;1.30;;;23.00;55.00;;;;;;4978494;28;20051;-66
2022/10/01 01:15:10;;;;;;;2.90;1.60;;;23.00;55.00;;;;;;4976363;28;20051;-66
2022/10/01 01:17:53;;;;;;;1.35;1.25;;;23.00;54.90;;;;;;4977791;28;20051;-66
2022/10/01 01:20:43;;;;;;;1.70;1.60;;;23.00;54.90;;;;;;4977615;28;20506;-66
2022/10/01 01:23:40;;;;;;;1.48;1.20;;;23.10;54.90;;;;;;4977433;28;20051;-66
2022/10/01 01:26:34;;;;;;;2.28;1.27;;;23.10;55.40;;;;;;4976494;28;20053;-66
2022/10/01 01:29:09;;;;;;;1.27;1.20;;;23.10;54.80;;;;;;4960894;28;20053;-66
2022/10/01 01:31:40;;;;;;;1.67;1.20;;;23.00;54.80;;;;;;4977683;28;20055;-66
2022/10/01 01:34:13;;;;;;;1.75;1.40;;;23.10;54.80;;;;;;4977753;28;20053;-66
2022/10/01 01:36:44;;;;;;;3.58;1.58;;;23.00;54.70;;;;;;4977289;28;20512;-66
2022/10/01 01:39:15;;;;;;;2.08;1.40;;;23.00;54.80;;;;;;4977711;28;20047;-67
2022/10/01 01:41:55;;;;;;;1.55;1.45;;;23.00;54.70;;;;;;4977450;28;20460;-67
2022/10/01 01:44:26;;;;;;;1.50;1.35;;;23.00;54.70;;;;;;4977601;28;20046;-66
2022/10/01 01:46:58;;;;;;;1.70;1.15;;;23.10;54.80;;;;;;4976477;28;20415;-67
2022/10/01 01:49:25;;;;;;;1.48;1.30;;;23.00;54.70;;;;;;4977989;28;20376;-66
2022/10/01 01:52:12;;;;;;;1.60;1.00;;;23.00;54.70;;;;;;4981728;28;20059;-66
2022/10/01 01:54:40;;;;;;;1.75;1.40;;;23.00;54.70;;;;;;4979647;28;20053;-66
2022/10/01 01:57:09;;;;;;;1.85;1.27;;;23.00;54.70;;;;;;4981115;28;20065;-67
2022/10/01 01:59:36;;;;;;;1.38;1.25;;;23.00;54.70;;;;;;4980742;28;20047;-66
2022/10/01 02:02:05;;;;;;;1.52;1.42;;;23.10;54.80;;;;;;4981613;28;20399;-66
2022/10/01 02:04:47;;;;;;;1.48;1.38;;;23.10;54.80;;;;;;4980592;28;20141;-67
2022/10/01 02:07:47;;;;;;;2.15;1.27;;;23.00;54.70;;;;;;4980978;28;20046;-66
2022/10/01 02:10:34;;;;;;;1.58;1.48;;;23.00;54.70;;;;;;4980811;28;20398;-67
2022/10/01 02:13:40;;;;;;;1.85;1.20;;;23.00;54.70;;;;;;4963755;28;20050;-66
2022/10/01 02:16:32;;;;;;;1.48;1.38;;;23.00;54.70;;;;;;4980348;28;20491;-67
2022/10/01 02:19:36;;;;;;;1.40;1.30;;;23.00;54.80;;;;;;4979611;28;20053;-62
2022/10/01 02:22:14;;;;;;;1.33;1.23;;;23.00;54.70;;;;;;4963611;28;20220;-67
2022/10/01 02:24:49;;;;;;;1.00;1.00;;;23.00;54.80;;;;;;4980230;28;20047;-67
2022/10/01 02:27:27;;;;;;;1.77;1.02;;;23.00;54.80;;;;;;4980429;28;20058;-66
2022/10/01 02:29:57;;;;;;;2.58;1.20;;;23.00;54.80;;;;;;4980539;28;20069;-67
2022/10/01 02:32:27;;;;;;;1.02;1.02;;;23.00;54.80;;;;;;4980318;28;20054;-67
2022/10/01 02:34:55;;;;;;;1.23;1.15;;;23.00;54.80;;;;;;4980049;28;20444;-66
2022/10/01 02:37:24;;;;;;;2.70;1.00;;;23.00;54.80;;;;;;4980302;28;20507;-66
2022/10/01 02:39:54;;;;;;;1.48;0.90;;;23.00;54.80;;;;;;4979769;28;20043;-66
2022/10/01 02:42:24;;;;;;;0.93;0.80;;;23.00;54.80;;;;;;4980687;28;20057;-66
2022/10/01 02:44:54;;;;;;;1.27;1.10;;;23.00;54.80;;;;;;4979923;28;20057;-67
2022/10/01 02:47:39;;;;;;;1.30;1.20;;;23.00;54.80;;;;;;4980105;28;20079;-67
2022/10/01 02:50:07;;;;;;;1.13;1.13;;;23.00;54.90;;;;;;4962917;28;20067;-67
2022/10/01 02:52:57;;;;;;;0.88;0.88;;;23.00;54.90;;;;;;4980036;28;20058;-67
2022/10/01 02:55:32;;;;;;;1.25;1.00;;;23.00;54.90;;;;;;4979948;28;20376;-66
2022/10/01 02:57:59;;;;;;;0.82;0.73;;;23.00;55.00;;;;;;4979874;28;20484;-66
2022/10/01 03:00:27;;;;;;;1.45;1.27;;;22.90;54.90;;;;;;4978512;28;20057;-66
2022/10/01 03:02:54;;;;;;;1.27;1.15;;;22.90;55.00;;;;;;4978895;28;20451;-66
2022/10/01 03:05:21;;;;;;;1.25;1.00;;;23.00;55.00;;;;;;4978312;28;20066;-66
2022/10/01 03:07:49;;;;;;;3.67;1.08;;;22.90;55.00;;;;;;4978772;28;20051;-65
2022/10/01 03:10:16;;;;;;;1.17;1.08;;;23.00;55.10;;;;;;4979704;28;20055;-66
2022/10/01 03:12:45;;;;;;;1.30;1.20;;;23.00;55.00;;;;;;4980230;28;20051;-66
2022/10/01 03:15:14;;;;;;;1.30;0.88;;;22.90;55.00;;;;;;4979484;28;20089;-66
2022/10/01 03:17:41;;;;;;;1.55;1.08;;;23.00;55.10;;;;;;4962230;28;20046;-67
2022/10/01 03:20:09;;;;;;;1.00;0.98;;;23.00;55.00;;;;;;4979483;28;20051;-67
2022/10/01 03:22:36;;;;;;;0.77;0.75;;;23.00;54.90;;;;;;4979247;28;20061;-67
2022/10/01 03:25:04;;;;;;;1.83;0.90;;;23.00;54.90;;;;;;4979257;28;20054;-67
2022/10/01 03:27:31;;;;;;;0.80;0.80;;;23.00;54.80;;;;;;4979199;28;20054;-66
2022/10/01 03:29:58;;;;;;;1.33;1.23;;;23.00;54.80;;;;;;4979172;28;20054;-67
2022/10/01 03:32:25;;;;;;;1.00;0.90;;;23.00;54.80;;;;;;4978995;28;20138;-67
2022/10/01 03:34:52;;;;;;;1.02;0.98;;;23.00;54.70;;;;;;4978933;28;20514;-67
2022/10/01 03:37:19;;;;;;;1.20;1.05;;;23.00;54.70;;;;;;4978938;28;20061;-67
2022/10/01 03:39:46;;;;;;;0.90;0.90;;;23.00;54.70;;;;;;4978567;28;20046;-67
2022/10/01 03:42:14;;;;;;;0.80;0.80;;;23.00;54.70;;;;;;4961711;28;20483;-66
2022/10/01 03:44:42;;;;;;;0.70;0.70;;;23.00;54.70;;;;;;4979021;28;20460;-67
2022/10/01 03:47:10;;;;;;;1.25;1.15;;;23.00;54.70;;;;;;4978804;28;20053;-67
2022/10/01 03:49:37;;;;;;;0.85;0.85;;;23.00;54.70;;;;;;4979211;28;20047;-67
2022/10/01 03:52:05;;;;;;;0.95;0.85;;;23.00;54.70;;;;;;4978902;28;20427;-66
2022/10/01 03:54:32;;;;;;;0.90;0.90;;;23.00;54.70;;;;;;4978937;28;20051;-66
2022/10/01 03:56:59;;;;;;;0.95;0.95;;;23.00;54.70;;;;;;4977563;28;20047;-66
2022/10/01 03:59:26;;;;;;;1.17;0.95;;;23.00;54.70;;;;;;4977756;28;20416;-66
2022/10/01 04:01:53;;;;;;;1.08;1.00;;;23.00;54.70;;;;;;4978910;28;20054;-66
2022/10/01 04:04:21;;;;;;;1.13;1.05;;;23.00;54.70;;;;;;4978443;28;20126;-67
2022/10/01 04:06:48;;;;;;;1.00;0.90;;;23.00;54.70;;;;;;4978483;28;20058;-67
2022/10/01 04:09:15;;;;;;;0.75;0.75;;;23.00;54.70;;;;;;4979199;28;20051;-67
2022/10/01 04:11:43;;;;;;;0.73;0.73;;;23.00;54.70;;;;;;4978575;28;20054;-67
2022/10/01 04:14:10;;;;;;;1.13;1.10;;;23.00;54.70;;;;;;4978478;28;20057;-66
2022/10/01 04:16:38;;;;;;;2.30;1.05;;;23.00;54.70;;;;;;4979110;28;20055;-67
2022/10/01 04:19:05;;;;;;;1.05;1.02;;;23.00;54.70;;;;;;4979148;28;20050;-66
2022/10/01 04:21:32;;;;;;;0.70;0.70;;;23.00;54.70;;;;;;4977165;28;20043;-67
2022/10/01 04:24:01;;;;;;;0.82;0.75;;;23.00;54.70;;;;;;4978506;28;20054;-67
2022/10/01 04:26:28;;;;;;;1.10;1.00;;;22.90;54.60;;;;;;4978195;28;20050;-67
2022/10/01 04:28:55;;;;;;;1.08;0.98;;;23.00;54.70;;;;;;4978393;28;20141;-67
2022/10/01 04:31:26;;;;;;;0.98;0.73;;;22.90;54.60;;;;;;4978422;28;20050;-67
2022/10/01 04:33:54;;;;;;;;;;;22.90;54.60;;;;;;4978718;28;20427;-66
2022/10/01 04:36:22;;;;;;;1.10;1.00;;;23.00;54.70;;;;;;4976882;28;19929;-66
2022/10/01 04:38:51;;;;;;;0.93;0.93;;;22.90;54.70;;;;;;4978000;28;20043;-66
2022/10/01 04:41:20;;;;;;;1.42;0.98;;;22.90;54.60;;;;;;4978079;28;20057;-67
2022/10/01 04:43:48;;;;;;;0.80;0.75;;;23.00;54.70;;;;;;4977922;28;20491;-67
2022/10/01 04:46:15;;;;;;;0.90;0.90;;;23.00;54.70;;;;;;4978236;28;20119;-66
2022/10/01 04:48:42;;;;;;;1.05;1.05;;;23.00;54.70;;;;;;4978014;28;20050;-66
2022/10/01 04:51:09;;;;;;;1.45;1.35;;;23.00;54.70;;;;;;4977857;28;20061;-66
2022/10/01 04:53:37;;;;;;;1.83;1.25;;;23.00;54.70;;;;;;4977969;28;20047;-66
2022/10/01 04:56:04;;;;;;;0.90;0.90;;;23.00;54.70;;;;;;4978272;28;20475;-66
2022/10/01 04:58:32;;;;;;;2.08;1.23;;;23.00;54.70;;;;;;4977411;28;20062;-67
2022/10/01 05:00:59;;;;;;;1.27;1.20;;;23.00;54.70;;;;;;4977474;28;20534;-63
2022/10/01 05:03:28;;;;;;;1.27;1.20;;;23.00;54.70;;;;;;4977766;28;20058;-66
2022/10/01 05:05:55;;;;;;;1.02;0.93;;;23.00;54.70;;;;;;4977332;28;20055;-67
2022/10/01 05:08:22;;;;;;;2.35;0.90;;;23.00;54.70;;;;;;4977876;28;20050;-67
2022/10/01 05:10:49;;;;;;;1.75;1.08;;;22.90;54.70;;;;;;4977737;28;20511;-67
2022/10/01 05:13:16;;;;;;;1.60;1.50;;;23.00;54.80;;;;;;4977627;28;20066;-66
2022/10/01 05:15:43;;;;;;;2.25;1.08;;;23.00;54.80;;;;;;4977938;28;20051;-66
2022/10/01 05:18:10;;;;;;;1.73;1.30;;;23.00;54.90;;;;;;4978033;28;20153;-67
2022/10/01 05:20:37;;;;;;;1.00;0.93;;;23.00;54.90;;;;;;4976872;28;20062;-67
2022/10/01 05:23:04;;;;;;;1.02;0.90;;;23.00;54.90;;;;;;4977594;28;20051;-67
2022/10/01 05:25:34;;;;;;;0.75;0.75;;;23.00;54.90;;;;;;4979935;28;20134;-66
2022/10/01 05:28:05;;;;;;;1.00;1.00;;;22.90;54.90;;;;;;4980134;28;20057;-67
2022/10/01 05:30:33;;;;;;;2.28;1.10;;;23.00;54.90;;;;;;4981211;28;20446;-66
2022/10/01 05:33:03;;;;;;;1.23;1.13;;;23.00;54.90;;;;;;4981256;28;20050;-66
2022/10/01 05:35:31;;;;;;;1.02;0.98;;;23.00;54.90;;;;;;4979922;28;20050;-67
2022/10/01 05:38:00;;;;;;;1.25;1.10;;;23.00;54.90;;;;;;4981218;28;20057;-67
2022/10/01 05:40:28;;;;;;;1.52;1.42;;;23.00;54.90;;;;;;4981051;28;20487;-67
2022/10/01 05:42:57;;;;;;;1.40;1.30;;;23.00;54.90;;;;;;4981265;28;20055;-66
2022/10/01 05:45:26;;;;;;;1.30;1.20;;;23.00;54.90;;;;;;4980975;28;20066;-67
2022/10/01 05:48:02;;;;;;;2.60;1.25;;;23.00;54.80;;;;;;4980944;28;20051;-66
2022/10/01 05:50:32;;;;;;;1.30;1.30;;;23.00;54.80;;;;;;4981013;28;20047;-66
2022/10/01 05:53:00;;;;;;;2.30;1.65;;;23.00;54.80;;;;;;4980936;28;20086;-66
2022/10/01 05:55:33;;;;;;;1.27;1.17;;;23.00;54.80;;;;;;4981474;28;20055;-67
2022/10/01 05:58:03;;;;;;;1.08;1.02;;;23.00;54.80;;;;;;4980554;28;20051;-66
2022/10/01 06:00:31;;;;;;;1.33;1.23;;;23.00;54.80;;;;;;4980777;28;20053;-67
2022/10/01 06:03:00;;;;;;;1.52;1.17;;;23.00;54.80;;;;;;4979878;28;20047;-67
2022/10/01 06:05:28;;;;;;;1.45;1.35;;;23.10;54.80;;;;;;4980464;28;20078;-66
2022/10/01 06:07:56;;;;;;;1.63;1.13;;;23.10;54.90;;;;;;4980829;28;20047;-67
2022/10/01 06:10:24;;;;;;;1.73;1.58;;;23.00;54.80;;;;;;4980764;28;20117;-67
2022/10/01 06:12:52;;;;;;;1.65;1.55;;;23.10;54.80;;;;;;4980595;28;20051;-66
2022/10/01 06:15:19;;;;;;;1.95;1.33;;;23.10;54.80;;;;;;4980190;28;20484;-66
2022/10/01 06:17:46;;;;;;;5.65;2.45;;;23.10;54.90;;;;;;4980550;28;20058;-66
2022/10/01 06:20:15;;;;;;;2.42;1.70;;;23.10;54.90;;;;;;4980155;28;20050;-66
2022/10/01 06:22:43;;;;;;;2.13;1.80;;;23.10;54.90;;;;;;4963278;28;20057;-66
2022/10/01 06:25:14;;;;;;;1.88;1.58;;;23.10;54.90;;;;;;4980278;28;20050;-66
2022/10/01 06:27:41;;;;;;;1.67;1.58;;;23.10;54.80;;;;;;4980606;28;20062;-67
2022/10/01 06:30:09;;;;;;;1.98;1.60;;;23.10;54.80;;;;;;4979989;28;20051;-67
2022/10/01 06:32:36;;;;;;;1.60;1.50;;;23.10;54.90;;;;;;4979301;28;20234;-67
2022/10/01 06:35:03;;;;;;;1.92;1.77;;;23.10;54.80;;;;;;4980025;28;20402;-66
2022/10/01 06:37:30;;;;;;;1.70;1.60;;;23.10;54.80;;;;;;4980176;28;20053;-66
2022/10/01 06:39:57;;;;;;;2.35;1.83;;;23.10;54.80;;;;;;4980150;28;20043;-67
2022/10/01 06:42:24;;;;;;;1.58;1.48;;;23.10;54.80;;;;;;4963245;28;20061;-67
2022/10/01 06:44:51;;;;;;;2.70;2.00;;;23.10;54.80;;;;;;4979677;28;20046;-67
2022/10/01 06:47:19;;;;;;;2.97;2.20;;;23.20;54.80;;;;;;4980039;28;20051;-67
2022/10/01 06:49:46;;;;;;;2.63;2.33;;;23.20;54.70;;;;;;4979966;28;20055;-66
2022/10/01 06:55:00;;;;;;;2.60;2.40;;;23.30;54.70;;;;;;4979733;28;20050;-63
2022/10/01 06:57:28;;;;;;;2.65;2.30;;;23.30;54.70;;;;;;4979824;28;20070;-67
2022/10/01 06:59:56;;;;;;;2.70;2.50;;;23.30;54.60;;;;;;4979851;28;20051;-67
2022/10/01 07:02:27;;;;;;;2.75;2.53;;;23.30;54.60;;;;;;4980061;28;20053;-66
2022/10/01 07:04:57;;;;;;;3.65;3.13;;;23.30;54.60;;;;;;4979482;28;20051;-67
2022/10/01 07:07:31;;;;;;;2.88;2.58;;;23.30;54.60;;;;;;4979524;28;20058;-67
2022/10/01 07:09:58;;;;;;;3.65;3.13;;;23.40;54.60;;;;;;4978400;28;20046;-64
2022/10/01 07:12:26;;;;;;;2.80;2.38;;;23.40;54.50;;;;;;4979283;28;20057;-66
2022/10/01 07:14:53;;;;;;;3.17;2.60;;;23.50;54.50;;;;;;4979331;28;20055;-67
2022/10/01 07:17:21;;;;;;;3.47;2.95;;;23.50;54.60;;;;;;4962327;28;20043;-66
2022/10/01 07:19:48;;;;;;;3.05;2.70;;;23.50;54.50;;;;;;4979456;28;20059;-66
2022/10/01 07:22:16;;;;;;;2.97;2.45;;;23.50;54.50;;;;;;4979634;28;20061;-66
2022/10/01 07:24:45;;;;;;;2.88;2.08;;;23.50;54.50;;;;;;4979172;28;20061;-67
2022/10/01 07:27:13;;;;;;;2.40;2.20;;;23.60;54.60;;;;;;4978825;28;20130;-66
2022/10/01 07:29:41;;;;;;;5.10;2.47;;;23.60;54.50;;;;;;4961701;28;20487;-67
2022/10/01 07:32:09;;;;;;;5.30;2.88;;;23.60;54.40;;;;;;4979319;28;20050;-66
2022/10/01 07:34:41;;;;;;;2.70;2.20;;;23.60;54.40;;;;;;4977990;28;20046;-66
2022/10/01 07:37:09;;;;;;;2.60;2.40;;;23.70;54.30;;;;;;4962556;28;20055;-67
2022/10/01 07:39:36;;;;;;;4.15;2.70;;;23.70;54.30;;;;;;4978845;28;20053;-66
2022/10/01 07:42:04;;;;;;;2.08;1.88;;;23.70;54.20;;;;;;4979154;28;20053;-66
2022/10/01 07:44:32;;;;;;;3.50;2.30;;;23.80;54.20;;;;;;4977866;28;20483;-67
2022/10/01 07:46:59;;;;;;;2.58;2.22;;;23.80;54.10;;;;;;4978584;28;20502;-67
2022/10/01 07:49:26;;;;;;;2.42;2.20;;;23.80;54.00;;;;;;4978558;28;20051;-66
2022/10/01 07:51:54;;;;;;;4.03;2.75;;;23.90;54.00;;;;;;4978720;28;20056;-67
2022/10/01 07:54:21;;;;;;;5.63;3.60;;;23.90;53.90;;;;;;4978594;28;20054;-63
2022/10/01 07:56:51;;;;;;;4.40;3.28;;;24.00;53.80;;;;;;4978803;28;20051;-66
2022/10/01 07:59:18;;;;;;;8.48;5.47;;;24.00;53.80;;;;;;4978777;28;20082;-66
2022/10/01 08:01:50;;;;;;;7.68;4.70;;;24.00;53.80;;;;;;4978656;28;20430;-66
2022/10/01 08:07:08;;;;;;;7.82;4.40;;;24.10;53.80;;;;;;4978452;28;20047;-67
2022/10/01 08:09:35;;;;;;;7.05;5.32;;;24.10;53.70;;;;;;4978690;28;20046;-65
2022/10/01 08:12:02;;;;;;;8.27;5.07;;;24.10;53.80;;;;;;4978724;28;20051;-62
2022/10/01 08:14:29;;;;;;;6.85;3.97;;;24.10;53.80;;;;;;4979246;28;20062;-66
2022/10/01 08:16:56;;;;;;;6.07;3.97;;;24.10;53.80;;;;;;4978748;28;20046;-66
2022/10/01 08:19:24;;;;;;;5.32;3.63;;;24.10;53.80;;;;;;4977315;28;20055;-66
2022/10/01 08:21:51;;;;;;;5.38;3.45;;;24.20;53.80;;;;;;4961145;28;20057;-66
2022/10/01 08:24:19;;;;;;;6.80;4.55;;;24.20;53.80;;;;;;4978356;28;20559;-66
2022/10/01 08:26:52;;;;;;;8.27;4.40;;;24.20;53.80;;;;;;4978940;28;20059;-66
2022/10/01 08:29:19;;;;;;;5.40;3.33;;;24.20;53.80;;;;;;4978149;28;20050;-67
2022/10/01 08:31:46;;;;;;;6.95;4.72;;;24.20;53.80;;;;;;4978069;28;20537;-66
2022/10/01 08:34:14;;;;;;;6.65;3.83;;;24.20;53.80;;;;;;4978083;28;20054;-65
2022/10/01 08:36:41;;;;;;;14.27;6.88;;;24.20;53.80;;;;;;4978214;28;20047;-67
2022/10/01 08:39:08;;;;;;;13.13;6.75;;;24.30;53.80;;;;;;4978662;28;20058;-66
2022/10/01 08:41:51;;;;;;;14.43;7.47;;;24.20;53.70;;;;;;4978370;28;20483;-66
2022/10/01 08:44:26;;;;;;;17.35;7.60;;;24.30;53.80;;;;;;4977833;28;20427;-67
2022/10/01 08:47:05;;;;;;;10.30;6.35;;;24.30;53.80;;;;;;4978252;28;20057;-67
2022/10/01 08:49:45;;;;;;;9.43;5.22;;;24.40;53.80;;;;;;4961157;28;20407;-66
2022/10/01 08:52:25;;;;;;;9.90;5.32;;;24.40;53.70;;;;;;4977851;28;20062;-66
2022/10/01 08:55:01;;;;;;;12.10;5.70;;;24.40;53.70;;;;;;4977421;28;20047;-66
2022/10/01 08:57:33;;;;;;;12.30;6.82;;;24.40;53.70;;;;;;4976840;28;20058;-66
2022/10/01 09:00:06;;;;;;;10.20;5.78;;;24.50;53.60;;;;;;4979256;28;20057;-66
2022/10/01 09:02:38;;;;;;;11.38;6.20;;;24.50;53.60;;;;;;4982276;28;20051;-67
2022/10/01 09:05:27;;;;;;;10.40;5.88;;;24.50;53.50;;;;;;4981792;28;20057;-67
2022/10/01 09:08:14;;;;;;;12.48;6.32;;;24.50;53.30;;;;;;4982143;28;20058;-66
2022/10/01 09:10:59;;;;;;;11.70;6.10;;;24.60;53.20;;;;;;4981988;28;20046;-66
2022/10/01 09:13:50;;;;;;;13.02;7.18;;;24.60;53.10;;;;;;4981927;28;20057;-67
2022/10/01 09:16:49;;;;;;;10.15;5.78;;;24.60;53.10;;;;;;4981920;28;20465;-66
2022/10/01 09:19:40;;;;;;;9.50;5.10;;;24.70;53.00;;;;;;4981513;28;20058;-66
2022/10/01 09:22:27;;;;;;;12.43;6.47;;;24.70;53.00;;;;;;4981723;28;20137;-67
2022/10/01 09:25:10;;;;;;;10.15;5.30;;;24.70;53.00;;;;;;4981740;28;20411;-67
2022/10/01 09:27:37;;;;;;;9.95;4.95;;;24.70;53.00;;;;;;4981308;28;20059;-67
2022/10/01 09:30:16;;;;;;;12.13;5.28;;;24.70;53.00;;;;;;4981627;28;20051;-67
2022/10/01 09:33:03;;;;;;;8.60;4.60;;;24.70;52.90;;;;;;4981207;28;20097;-67
2022/10/01 09:35:44;;;;;;;9.23;5.13;;;24.80;52.90;;;;;;4964457;28;20046;-66
2022/10/01 09:38:14;;;;;;;;;;;24.80;52.90;;;;;;4980648;28;20047;-66
2022/10/01 09:40:54;;;;;;;12.85;4.88;;;24.80;52.80;;;;;;4981484;28;19929;-67
2022/10/01 09:43:40;;;;;;;7.72;4.82;;;24.90;52.90;;;;;;4981288;28;20050;-66
2022/10/01 09:46:12;;;;;;;8.60;4.10;;;24.90;52.90;;;;;;4981081;28;20061;-67
2022/10/01 09:49:07;;;;;;;8.02;4.25;;;24.90;52.90;;;;;;4981153;28;20051;-67
2022/10/01 09:51:43;;;;;;;6.47;3.25;;;24.90;52.90;;;;;;4981796;28;20046;-66
2022/10/01 09:54:26;;;;;;;8.98;4.10;;;24.90;53.00;;;;;;4980708;28;20054;-67
2022/10/01 09:56:58;;;;;;;7.00;3.38;;;24.90;53.00;;;;;;4981222;28;20058;-66
2022/10/01 09:59:39;;;;;;;5.13;3.45;;;24.90;53.10;;;;;;4981141;28;20063;-67
2022/10/01 10:02:13;;;;;;;;;;;24.90;53.00;;;;;;4980228;28;20055;-67
2022/10/01 10:04:41;;;;;;;7.95;4.10;;;24.90;53.00;;;;;;4963747;28;19929;-67
2022/10/01 10:07:17;;;;;;;8.23;3.97;;;24.90;53.00;;;;;;4980805;28;20053;-67
2022/10/01 10:09:45;;;;;;;6.60;3.88;;;24.90;53.00;;;;;;4981008;28;20400;-67
2022/10/01 10:12:28;;;;;;;6.85;3.30;;;24.90;53.00;;;;;;4980474;28;20415;-67
2022/10/01 10:14:57;;;;;;;6.35;3.70;;;25.00;53.00;;;;;;4980500;28;20105;-67
2022/10/01 10:17:24;;;;;;;5.43;3.13;;;25.00;53.00;;;;;;4980294;28;20051;-67
2022/10/01 10:19:52;;;;;;;4.65;3.20;;;25.00;52.90;;;;;;4980609;28;20051;-67
2022/10/01 10:22:24;;;;;;;7.97;3.78;;;25.10;53.00;;;;;;4980731;28;20427;-66
2022/10/01 10:24:57;;;;;;;4.97;3.25;;;25.10;53.00;;;;;;4980771;28;20428;-67
2022/10/01 10:27:28;;;;;;;4.25;2.85;;;25.10;53.00;;;;;;4980371;28;20051;-67
2022/10/01 10:30:05;;;;;;;5.82;2.88;;;25.10;53.00;;;;;;4980993;28;20129;-67
2022/10/01 10:32:32;;;;;;;4.05;3.03;;;25.10;53.10;;;;;;4979093;28;20057;-67
2022/10/01 10:35:04;;;;;;;5.47;3.38;;;25.10;53.10;;;;;;4980888;28;20407;-67
2022/10/01 10:37:43;;;;;;;4.55;2.85;;;25.10;53.10;;;;;;4980219;28;20050;-67
2022/10/01 10:40:20;;;;;;;5.80;2.75;;;25.10;53.00;;;;;;4979969;28;20061;-67
2022/10/01 10:42:54;;;;;;;6.05;2.35;;;25.10;53.00;;;;;;4980243;28;20071;-67
2022/10/01 10:45:32;;;;;;;2.95;2.35;;;25.10;52.90;;;;;;4979906;28;20113;-67
2022/10/01 10:48:00;;;;;;;3.47;2.30;;;25.30;53.00;;;;;;4980114;28;20047;-66
2022/10/01 10:50:31;;;;;;;4.03;2.72;;;25.20;52.90;;;;;;4978786;28;20145;-67
2022/10/01 10:52:58;;;;;;;3.75;2.58;;;25.20;52.90;;;;;;4979900;28;20526;-67
2022/10/01 10:55:29;;;;;;;3.08;2.03;;;25.30;53.00;;;;;;4979733;28;20055;-67
2022/10/01 10:58:11;;;;;;;4.05;2.53;;;25.30;52.90;;;;;;4980178;28;20051;-67
2022/10/01 11:00:48;;;;;;;3.28;2.13;;;25.30;53.00;;;;;;4979986;28;20047;-67
2022/10/01 11:03:20;;;;;;;3.90;1.98;;;25.30;53.10;;;;;;4962593;28;20054;-67
2022/10/01 11:05:50;;;;;;;3.05;2.22;;;25.20;53.10;;;;;;4979702;28;20416;-67
2022/10/01 11:08:21;;;;;;;3.65;2.05;;;25.20;53.10;;;;;;4979691;28;20060;-67
2022/10/01 11:11:03;;;;;;;3.90;2.03;;;25.20;53.20;;;;;;4978749;28;20050;-67
2022/10/01 11:13:52;;;;;;;7.90;2.38;;;25.20;53.20;;;;;;4978636;28;20072;-67
2022/10/01 11:17:03;;;;;;;2.42;1.58;;;25.20;53.30;;;;;;4979564;28;20057;-66
2022/10/01 11:19:55;;;;;;;3.53;2.05;;;25.20;53.30;;;;;;4979492;28;20050;-66
2022/10/01 11:22:51;;;;;;;4.18;1.88;;;25.20;53.30;;;;;;4978802;28;20134;-67
2022/10/01 11:25:39;;;;;;;2.72;1.73;;;25.20;53.30;;;;;;4979200;28;20062;-66
2022/10/01 11:28:30;;;;;;;1.88;1.77;;;25.20;53.40;;;;;;4979322;28;20053;-67
2022/10/01 11:31:21;;;;;;;2.63;1.73;;;25.20;53.30;;;;;;4979437;28;20051;-67
2022/10/01 11:34:26;;;;;;;3.67;1.85;;;25.30;53.30;;;;;;4979050;28;20514;-67
2022/10/01 11:37:30;;;;;;;2.88;1.90;;;25.30;53.30;;;;;;4962225;28;20053;-67
2022/10/01 11:40:02;;;;;;;2.78;1.95;;;25.30;53.20;;;;;;4961856;28;20137;-67
2022/10/01 11:42:34;;;;;;;4.30;1.80;;;25.40;53.20;;;;;;4979189;28;20506;-67
2022/10/01 11:45:12;;;;;;;3.42;2.05;;;25.40;53.10;;;;;;4979139;28;20047;-67
2022/10/01 11:47:46;;;;;;;1.85;1.42;;;25.40;53.00;;;;;;4979055;28;20050;-67
2022/10/01 11:50:19;;;;;;;2.50;1.55;;;25.40;53.00;;;;;;4979164;28;20051;-67
2022/10/01 11:53:14;;;;;;;4.22;2.10;;;25.40;52.90;;;;;;4978957;28;20057;-67
2022/10/01 11:59:07;;;;;;;2.37;1.43;;;25.50;52.80;;;;;;4978753;28;20057;-66
2022/10/01 12:01:45;;;;;;;3.63;1.85;;;25.50;52.80;;;;;;4978638;28;20510;-67
2022/10/01 12:04:28;;;;;;;3.63;1.95;;;25.50;52.80;;;;;;4979192;28;20050;-67
2022/10/01 12:07:15;;;;;;;1.33;1.23;;;25.50;52.90;;;;;;4978931;28;20051;-67
2022/10/01 12:10:12;;;;;;;4.03;1.95;;;25.50;52.90;;;;;;4978502;28;20488;-67
2022/10/01 12:12:57;;;;;;;2.05;1.35;;;25.50;52.90;;;;;;4977890;28;20113;-66
2022/10/01 12:15:31;;;;;;;1.48;1.38;;;25.50;53.00;;;;;;4978661;28;20055;-67
2022/10/01 12:18:21;;;;;;;1.40;1.30;;;25.50;53.00;;;;;;4978542;28;20054;-67
2022/10/01 12:20:52;;;;;;;1.52;1.40;;;25.40;53.00;;;;;;4978214;28;20055;-67
2022/10/01 12:23:25;;;;;;;2.33;1.40;;;25.40;53.00;;;;;;4961480;28;20051;-67
2022/10/01 12:26:18;;;;;;;1.75;1.30;;;25.40;53.00;;;;;;4978512;28;20057;-67
2022/10/01 12:29:22;;;;;;;2.20;1.30;;;25.50;53.00;;;;;;4960924;28;20047;-67
2022/10/01 12:32:17;;;;;;;2.63;1.52;;;25.40;53.00;;;;;;4978319;28;20483;-67
2022/10/01 12:35:10;;;;;;;1.77;1.27;;;25.40;53.00;;;;;;4978078;28;20046;-66
2022/10/01 12:38:12;;;;;;;1.13;1.00;;;25.50;53.10;;;;;;4978059;28;20054;-67
2022/10/01 12:40:48;;;;;;;2.13;1.38;;;25.50;53.00;;;;;;4977374;28;20051;-67
2022/10/01 12:43:46;;;;;;;2.08;1.45;;;25.50;52.90;;;;;;4978266;28;20074;-67
2022/10/01 12:46:34;;;;;;;1.23;1.13;;;25.50;53.00;;;;;;4977114;28;20046;-67
2022/10/01 12:49:32;;;;;;;2.85;1.58;;;25.40;52.90;;;;;;4977043;28;20053;-67
2022/10/01 12:52:20;;;;;;;1.52;1.15;;;25.50;53.00;;;;;;4978230;28;20051;-66
2022/10/01 12:54:59;;;;;;;2.50;1.40;;;25.40;52.90;;;;;;4978037;28;20058;-66
2022/10/01 12:57:59;;;;;;;1.35;1.10;;;25.40;53.00;;;;;;4961668;28;20062;-66
2022/10/01 13:00:32;;;;;;;2.65;1.00;;;25.40;53.00;;;;;;4960804;28;20513;-66
2022/10/01 13:03:30;;;;;;;1.15;1.05;;;25.40;53.00;;;;;;4977877;28;20054;-67
2022/10/01 13:06:24;;;;;;;1.38;1.10;;;25.40;53.00;;;;;;4978446;28;20051;-68
2022/10/01 13:09:04;;;;;;;1.25;1.15;;;25.50;53.10;;;;;;4976901;28;20073;-67
2022/10/01 13:12:00;;;;;;;2.35;1.55;;;25.40;53.00;;;;;;4977470;28;20408;-67
2022/10/01 13:14:28;;;;;;;1.73;1.15;;;25.40;53.00;;;;;;4976707;28;20058;-67
2022/10/01 13:17:01;;;;;;;1.88;1.10;;;25.40;53.60;;;;;;4978010;28;20057;-67
2022/10/01 13:19:58;;;;;;;1.15;1.10;;;25.40;53.10;;;;;;4977904;28;20410;-67
2022/10/01 13:22:37;;;;;;;1.60;1.42;;;25.40;53.10;;;;;;4977770;28;20066;-67
2022/10/01 13:25:32;;;;;;;1.00;0.90;;;25.40;53.20;;;;;;4977908;28;20471;-66
2022/10/01 13:28:14;;;;;;;2.53;1.17;;;25.40;53.20;;;;;;4977631;28;20062;-67
2022/10/01 13:30:58;;;;;;;1.30;1.00;;;25.40;53.20;;;;;;4977410;28;20051;-67
2022/10/01 13:33:31;;;;;;;1.42;1.23;;;25.40;53.20;;;;;;4977977;28;20055;-66